^^
Datos históricos de la estación: Murcia-Puente Tocinos
Diario Informe para Abril 22, 2019 Unidades:  Ambas    Inglés   Métrico
Diario Semanal Mensual Anual Configurable
  Máximo: Mínimo: Media:
Temperatura: 66.9 °F /  19.4 °C 52.9 °F /  11.6 °C 59.2 °F /  15.1 °C
Punto de rocio: 53.8 °F /  12.1 °C 48 °F /  8.9 °C 50.4 °F /  10.2 °C
Humedad: 91% 51% 74%
Velocidad viento: 10.2mph /  16.4km/h - 5.9mph /  9.5km/h
Racha viento: 19.6mph /  31.5km/h - -
Viento- - SW
Presión: 29.6 in /  1003.7 hPa 29.5 in /  998.8 hPa -
Precipitación: 0.06 in /  1.5 mm    
Historical Graphs
 
 
Tabla de datos para Abril 22, 2019
Hora Temperatura Punto de rocio Presión Viento Velocidad viento Racha viento Humedad Intensidad lluvia(por hora) Nubes
00:00 54.9 °F /  12.7 °C 51.1 °F /  10.6 °C 29.6in /  1003.7hPa SSW 8mph /  12.9km/h 13mph /  20.9km/h 87% 0in /  0.0mm RA
00:05 54.9 °F /  12.7 °C 51.1 °F /  10.6 °C 29.6in /  1003.6hPa SW 8.1mph /  13.0km/h 11.4mph /  18.3km/h 87% 0.04in /  1.0mm RA
00:10 54.9 °F /  12.7 °C 51.1 °F /  10.6 °C 29.6in /  1003.6hPa SW 7.6mph /  12.2km/h 12.7mph /  20.4km/h 87% 0.04in /  1.0mm CLR
00:15 54.9 °F /  12.7 °C 51.1 °F /  10.6 °C 29.6in /  1003.6hPa SSW 7.6mph /  12.2km/h 12.7mph /  20.4km/h 87% 0.02in /  0.5mm CLR
00:20 54.9 °F /  12.7 °C 51.1 °F /  10.6 °C 29.6in /  1003.3hPa SW 8.7mph /  14.0km/h 11.5mph /  18.5km/h 87% 0.02in /  0.5mm CLR
00:25 54.9 °F /  12.7 °C 51.1 °F /  10.6 °C 29.6in /  1003.3hPa West 8.7mph /  14.0km/h 11.5mph /  18.5km/h 87% 0.02in /  0.5mm CLR
00:30 54.9 °F /  12.7 °C 51.1 °F /  10.6 °C 29.6in /  1003.3hPa SW 7.6mph /  12.2km/h 8.1mph /  13.0km/h 87% 0.02in /  0.5mm CLR
00:35 54.9 °F /  12.7 °C 51.1 °F /  10.6 °C 29.6in /  1003.6hPa West 7.6mph /  12.2km/h 10.2mph /  16.4km/h 87% 0.02in /  0.5mm CLR
00:40 54.9 °F /  12.7 °C 51.1 °F /  10.6 °C 29.6in /  1003.6hPa SW 6.2mph /  10.0km/h 10.4mph /  16.7km/h 87% 0.02in /  0.5mm RA
00:45 54.9 °F /  12.7 °C 51.4 °F /  10.8 °C 29.6in /  1003.6hPa WSW 6.2mph /  10.0km/h 9.2mph /  14.8km/h 88% 0.02in /  0.5mm RA
00:50 54.7 °F /  12.6 °C 51.3 °F /  10.7 °C 29.6in /  1003.3hPa SW 6.4mph /  10.3km/h 10.4mph /  16.7km/h 88% 0.02in /  0.5mm RA
00:55 54.7 °F /  12.6 °C 51.3 °F /  10.7 °C 29.6in /  1003.3hPa South 6.4mph /  10.3km/h 8.1mph /  13.0km/h 88% 0.01in /  0.3mm
01:00 54.7 °F /  12.6 °C 51.3 °F /  10.7 °C 29.6in /  1003.3hPa SW 6mph /  9.7km/h 12mph /  19.3km/h 88% 0in /  0.0mm RA
01:04 54.7 °F /  12.6 °C 51.3 °F /  10.7 °C 29.6in /  1003.4hPa SSW 6.2mph /  10.0km/h 10.2mph /  16.4km/h 88% 0.02in /  0.5mm RA
01:09 54.5 °F /  12.5 °C 51.3 °F /  10.7 °C 29.6in /  1003.4hPa WSW 6.2mph /  10.0km/h 8.1mph /  13.0km/h 89% 0.02in /  0.5mm
01:14 54.3 °F /  12.4 °C 51.1 °F /  10.6 °C 29.6in /  1003.4hPa WSW 6.2mph /  10.0km/h 9.2mph /  14.8km/h 89% 0.02in /  0.5mm
01:19 54.3 °F /  12.4 °C 50.7 °F /  10.4 °C 29.6in /  1003.2hPa SW 6.4mph /  10.3km/h 12.7mph /  20.4km/h 88% 0.04in /  1.0mm RA
01:24 54.3 °F /  12.4 °C 50.5 °F /  10.3 °C 29.6in /  1003.2hPa WSW 6.4mph /  10.3km/h 17.3mph /  27.8km/h 87% 0.04in /  1.0mm RA
01:29 54.3 °F /  12.4 °C 50.2 °F /  10.1 °C 29.6in /  1003.2hPa WSW 8.7mph /  14.0km/h 13.8mph /  22.2km/h 86% 0.04in /  1.0mm
01:34 54.3 °F /  12.4 °C 50.2 °F /  10.1 °C 29.6in /  1003.2hPa WSW 8.7mph /  14.0km/h 17.3mph /  27.8km/h 86% 0.05in /  1.3mm RA
01:39 54.1 °F /  12.3 °C 50 °F /  10.0 °C 29.6in /  1003.2hPa SW 10.2mph /  16.4km/h 13.7mph /  22.0km/h 86% 0.05in /  1.3mm RA
01:44 54.1 °F /  12.3 °C 50 °F /  10.0 °C 29.6in /  1003.2hPa SW 10.2mph /  16.4km/h 14mph /  22.5km/h 86% 0.05in /  1.3mm RA
01:49 54 °F /  12.2 °C 49.8 °F /  9.9 °C 29.6in /  1003.0hPa WSW 9.2mph /  14.8km/h 13.8mph /  22.2km/h 86% 0.04in /  1.0mm
01:54 54 °F /  12.2 °C 49.8 °F /  9.9 °C 29.6in /  1003.0hPa WSW 9.2mph /  14.8km/h 11.8mph /  19.0km/h 86% 0.04in /  1.0mm CLR
01:59 54 °F /  12.2 °C 49.8 °F /  9.9 °C 29.6in /  1003.0hPa SSW 8.7mph /  14.0km/h 11.5mph /  18.5km/h 86% 0.04in /  1.0mm CLR
02:04 54 °F /  12.2 °C 49.6 °F /  9.8 °C 29.6in /  1002.8hPa South 8.7mph /  14.0km/h 13.8mph /  22.2km/h 85% 0.03in /  0.8mm CLR
02:09 54 °F /  12.2 °C 49.6 °F /  9.8 °C 29.6in /  1002.8hPa SSW 8.5mph /  13.7km/h 11.5mph /  18.5km/h 85% 0.03in /  0.8mm CLR
02:14 54 °F /  12.2 °C 49.6 °F /  9.8 °C 29.6in /  1002.8hPa SW 8.5mph /  13.7km/h 15mph /  24.1km/h 85% 0.03in /  0.8mm CLR
02:19 54 °F /  12.2 °C 49.3 °F /  9.6 °C 29.6in /  1002.7hPa SW 8.7mph /  14.0km/h 12.7mph /  20.4km/h 84% 0.03in /  0.8mm CLR
02:24 54 °F /  12.2 °C 48.9 °F /  9.4 °C 29.6in /  1002.7hPa SW 8.7mph /  14.0km/h 16.1mph /  25.9km/h 83% 0.01in /  0.3mm CLR
02:29 54 °F /  12.2 °C 48.9 °F /  9.4 °C 29.6in /  1002.7hPa WSW 8.7mph /  14.0km/h 13.8mph /  22.2km/h 83% 0.01in /  0.3mm CLR
02:34 54.1 °F /  12.3 °C 49.1 °F /  9.5 °C 29.6in /  1002.5hPa WSW 8.7mph /  14.0km/h 15mph /  24.1km/h 83% 0.01in /  0.3mm CLR
02:39 54.1 °F /  12.3 °C 49.1 °F /  9.5 °C 29.6in /  1002.5hPa SSW 9.2mph /  14.8km/h 12.7mph /  20.4km/h 83% 0in /  0.0mm CLR
02:44 54.1 °F /  12.3 °C 49.5 °F /  9.7 °C 29.6in /  1002.5hPa SSW 9.2mph /  14.8km/h 8.1mph /  13.0km/h 84% 0in /  0.0mm CLR
02:49 54.1 °F /  12.3 °C 49.5 °F /  9.7 °C 29.6in /  1002.3hPa South 7.4mph /  11.9km/h 10.4mph /  16.7km/h 84% 0in /  0.0mm CLR
02:54 54.1 °F /  12.3 °C 49.6 °F /  9.8 °C 29.6in /  1002.3hPa SSW 7.4mph /  11.9km/h 8.1mph /  13.0km/h 85% 0in /  0.0mm CLR
02:59 54.1 °F /  12.3 °C 50 °F /  10.0 °C 29.6in /  1002.3hPa SSW 6.4mph /  10.3km/h 9.2mph /  14.8km/h 86% 0in /  0.0mm CLR
03:04 54 °F /  12.2 °C 49.8 °F /  9.9 °C 29.6in /  1002.2hPa South 6.4mph /  10.3km/h 9.2mph /  14.8km/h 86% 0in /  0.0mm CLR
03:09 53.8 °F /  12.1 °C 50 °F /  10.0 °C 29.6in /  1002.2hPa SSW 6.4mph /  10.3km/h 10.4mph /  16.7km/h 87% 0in /  0.0mm CLR
03:14 53.4 °F /  11.9 °C 50 °F /  10.0 °C 29.6in /  1002.2hPa South 6.4mph /  10.3km/h 10.4mph /  16.7km/h 88% 0in /  0.0mm CLR
03:19 53.4 °F /  11.9 °C 50 °F /  10.0 °C 29.6in /  1002.1hPa SSW 7.4mph /  11.9km/h 10.4mph /  16.7km/h 88% 0in /  0.0mm CLR
03:24 53.4 °F /  11.9 °C 50 °F /  10.0 °C 29.6in /  1002.1hPa SSW 7.4mph /  11.9km/h 13.8mph /  22.2km/h 88% 0in /  0.0mm CLR
03:29 53.4 °F /  11.9 °C 49.6 °F /  9.8 °C 29.6in /  1002.1hPa SSW 8.1mph /  13.0km/h 16.1mph /  25.9km/h 87% 0in /  0.0mm CLR
03:34 53.6 °F /  12.0 °C 49.8 °F /  9.9 °C 29.6in /  1001.8hPa WSW 8.1mph /  13.0km/h 12.7mph /  20.4km/h 87% 0in /  0.0mm CLR
03:39 53.6 °F /  12.0 °C 49.5 °F /  9.7 °C 29.6in /  1001.8hPa South 9.2mph /  14.8km/h 11.5mph /  18.5km/h 86% 0in /  0.0mm CLR
03:44 53.6 °F /  12.0 °C 49.5 °F /  9.7 °C 29.6in /  1001.8hPa SW 9.2mph /  14.8km/h 8.1mph /  13.0km/h 86% 0in /  0.0mm CLR
03:49 53.6 °F /  12.0 °C 49.5 °F /  9.7 °C 29.6in /  1001.7hPa SW 7.4mph /  11.9km/h 13.8mph /  22.2km/h 86% 0in /  0.0mm CLR
03:54 53.6 °F /  12.0 °C 49.5 °F /  9.7 °C 29.6in /  1001.7hPa SSW 7.4mph /  11.9km/h 11.5mph /  18.5km/h 86% 0in /  0.0mm CLR
03:59 53.6 °F /  12.0 °C 49.5 °F /  9.7 °C 29.6in /  1001.7hPa SSW 8.1mph /  13.0km/h 13.8mph /  22.2km/h 86% 0in /  0.0mm CLR
04:04 53.6 °F /  12.0 °C 49.5 °F /  9.7 °C 29.6in /  1001.6hPa South 8.1mph /  13.0km/h 12.7mph /  20.4km/h 86% 0in /  0.0mm CLR
04:09 53.6 °F /  12.0 °C 49.5 °F /  9.7 °C 29.6in /  1001.6hPa SSW 7.6mph /  12.2km/h 10.4mph /  16.7km/h 86% 0in /  0.0mm CLR
04:14 53.6 °F /  12.0 °C 49.5 °F /  9.7 °C 29.6in /  1001.6hPa SSW 7.6mph /  12.2km/h 10.4mph /  16.7km/h 86% 0in /  0.0mm CLR
04:19 53.6 °F /  12.0 °C 49.5 °F /  9.7 °C 29.6in /  1001.5hPa SW 6.9mph /  11.1km/h 11.5mph /  18.5km/h 86% 0in /  0.0mm CLR
04:24 53.6 °F /  12.0 °C 49.5 °F /  9.7 °C 29.6in /  1001.5hPa SSW 6.9mph /  11.1km/h 11.5mph /  18.5km/h 86% 0in /  0.0mm CLR
04:29 53.8 °F /  12.1 °C 49.6 °F /  9.8 °C 29.6in /  1001.5hPa WSW 6.9mph /  11.1km/h 11.4mph /  18.3km/h 86% 0in /  0.0mm CLR
04:34 53.8 °F /  12.1 °C 49.6 °F /  9.8 °C 29.6in /  1001.4hPa SSW 6.9mph /  11.1km/h 10.2mph /  16.4km/h 86% 0in /  0.0mm CLR
04:39 53.8 °F /  12.1 °C 49.6 °F /  9.8 °C 29.6in /  1001.4hPa SW 6.9mph /  11.1km/h 10.4mph /  16.7km/h 86% 0in /  0.0mm CLR
04:44 53.8 °F /  12.1 °C 49.6 °F /  9.8 °C 29.6in /  1001.4hPa SSW 6.9mph /  11.1km/h 10.4mph /  16.7km/h 86% 0in /  0.0mm CLR
04:49 53.8 °F /  12.1 °C 49.6 °F /  9.8 °C 29.6in /  1001.3hPa SSW 6.9mph /  11.1km/h 11.5mph /  18.5km/h 86% 0in /  0.0mm CLR
04:54 53.8 °F /  12.1 °C 49.5 °F /  9.7 °C 29.6in /  1001.3hPa SSW 6.9mph /  11.1km/h 10.4mph /  16.7km/h 85% 0in /  0.0mm CLR
04:59 53.8 °F /  12.1 °C 49.5 °F /  9.7 °C 29.6in /  1001.3hPa SSW 7.4mph /  11.9km/h 9.2mph /  14.8km/h 85% 0in /  0.0mm CLR
05:04 54 °F /  12.2 °C 49.6 °F /  9.8 °C 29.6in /  1001.2hPa SW 7.4mph /  11.9km/h 10.4mph /  16.7km/h 85% 0in /  0.0mm CLR
05:09 54 °F /  12.2 °C 49.6 °F /  9.8 °C 29.6in /  1001.2hPa SW 5.9mph /  9.5km/h 10.4mph /  16.7km/h 85% 0in /  0.0mm CLR
05:14 54 °F /  12.2 °C 49.6 °F /  9.8 °C 29.6in /  1001.2hPa South 5.9mph /  9.5km/h 9.2mph /  14.8km/h 85% 0in /  0.0mm CLR
05:19 54 °F /  12.2 °C 49.6 °F /  9.8 °C 29.6in /  1001.0hPa SSW 6.4mph /  10.3km/h 11.5mph /  18.5km/h 85% 0in /  0.0mm CLR
05:24 53.8 °F /  12.1 °C 49.6 °F /  9.8 °C 29.6in /  1001.0hPa WSW 6.4mph /  10.3km/h 8.7mph /  14.0km/h 86% 0in /  0.0mm CLR
05:29 53.8 °F /  12.1 °C 49.6 °F /  9.8 °C 29.6in /  1001.0hPa SW 6.4mph /  10.3km/h 10.4mph /  16.7km/h 86% 0in /  0.0mm CLR
05:34 53.8 °F /  12.1 °C 49.6 °F /  9.8 °C 29.6in /  1001.0hPa SSW 6.4mph /  10.3km/h 11.5mph /  18.5km/h 86% 0in /  0.0mm CLR
05:39 53.8 °F /  12.1 °C 49.6 °F /  9.8 °C 29.6in /  1001.0hPa South 6.9mph /  11.1km/h 9.2mph /  14.8km/h 86% 0in /  0.0mm CLR
05:44 53.8 °F /  12.1 °C 49.6 °F /  9.8 °C 29.6in /  1001.0hPa South 6.9mph /  11.1km/h 8.1mph /  13.0km/h 86% 0in /  0.0mm CLR
05:49 53.8 °F /  12.1 °C 49.6 °F /  9.8 °C 29.6in /  1000.9hPa South 6.4mph /  10.3km/h 10.4mph /  16.7km/h 86% 0in /  0.0mm CLR
05:54 54 °F /  12.2 °C 49.8 °F /  9.9 °C 29.6in /  1000.9hPa South 6.4mph /  10.3km/h 9.2mph /  14.8km/h 86% 0in /  0.0mm CLR
05:59 54 °F /  12.2 °C 49.8 °F /  9.9 °C 29.6in /  1000.9hPa SW 6.2mph /  10.0km/h 8.1mph /  13.0km/h 86% 0in /  0.0mm CLR
06:04 53.8 °F /  12.1 °C 50 °F /  10.0 °C 29.6in /  1000.8hPa SW 6.2mph /  10.0km/h 7.6mph /  12.2km/h 87% 0in /  0.0mm CLR
06:09 53.8 °F /  12.1 °C 50 °F /  10.0 °C 29.6in /  1000.8hPa WSW 5.2mph /  8.4km/h 6.9mph /  11.1km/h 87% 0in /  0.0mm CLR
06:14 53.8 °F /  12.1 °C 50.4 °F /  10.2 °C 29.6in /  1000.8hPa SW 5.2mph /  8.4km/h 9.2mph /  14.8km/h 88% 0.01in /  0.3mm RA
06:19 53.6 °F /  12.0 °C 50.2 °F /  10.1 °C 29.6in /  1000.7hPa SW 5.2mph /  8.4km/h 9.2mph /  14.8km/h 88% 0.01in /  0.3mm RA
06:24 53.6 °F /  12.0 °C 50.4 °F /  10.2 °C 29.6in /  1000.7hPa South 5.2mph /  8.4km/h 8.1mph /  13.0km/h 89% 0.01in /  0.3mm RA
06:29 53.4 °F /  11.9 °C 50.4 °F /  10.2 °C 29.6in /  1000.7hPa SSW 5.4mph /  8.7km/h 10.4mph /  16.7km/h 89% 0.01in /  0.3mm
06:34 53.4 °F /  11.9 °C 50.4 °F /  10.2 °C 29.6in /  1000.6hPa South 5.4mph /  8.7km/h 9.2mph /  14.8km/h 89% 0.01in /  0.3mm CLR
06:39 53.4 °F /  11.9 °C 50.5 °F /  10.3 °C 29.6in /  1000.6hPa South 6.4mph /  10.3km/h 8.1mph /  13.0km/h 90% 0.01in /  0.3mm CLR
06:44 53.2 °F /  11.8 °C 50.4 °F /  10.2 °C 29.6in /  1000.6hPa South 6.4mph /  10.3km/h 8.7mph /  14.0km/h 90% 0.01in /  0.3mm CLR
06:49 53.2 °F /  11.8 °C 50.4 °F /  10.2 °C 29.5in /  1000.4hPa SSW 5.9mph /  9.5km/h 9.2mph /  14.8km/h 90% 0.01in /  0.3mm CLR
06:54 53.1 °F /  11.7 °C 50.5 °F /  10.3 °C 29.5in /  1000.4hPa SSW 5.9mph /  9.5km/h 11.5mph /  18.5km/h 91% 0.01in /  0.3mm CLR
06:59 53.1 °F /  11.7 °C 50.5 °F /  10.3 °C 29.5in /  1000.4hPa SSW 6.9mph /  11.1km/h 11.5mph /  18.5km/h 91% 0.01in /  0.3mm CLR
07:04 52.9 °F /  11.6 °C 50.4 °F /  10.2 °C 29.5in /  1000.5hPa SSW 6.9mph /  11.1km/h 11.5mph /  18.5km/h 91% 0.01in /  0.3mm CLR
07:09 53.1 °F /  11.7 °C 50.5 °F /  10.3 °C 29.5in /  1000.5hPa SSW 7.6mph /  12.2km/h 12.7mph /  20.4km/h 91% 0.01in /  0.3mm CLR
07:14 53.1 °F /  11.7 °C 50.2 °F /  10.1 °C 29.5in /  1000.5hPa SW 7.6mph /  12.2km/h 12.7mph /  20.4km/h 90% 0.01in /  0.3mm CLR
07:19 53.2 °F /  11.8 °C 50.4 °F /  10.2 °C 29.5in /  1000.5hPa SSW 8.1mph /  13.0km/h 13.8mph /  22.2km/h 90% 0.01in /  0.3mm CLR
07:24 53.4 °F /  11.9 °C 50.4 °F /  10.2 °C 29.5in /  1000.5hPa SW 8.1mph /  13.0km/h 11.5mph /  18.5km/h 89% 0in /  0.0mm CLR
07:29 53.4 °F /  11.9 °C 50.4 °F /  10.2 °C 29.5in /  1000.5hPa South 9.7mph /  15.6km/h 15mph /  24.1km/h 89% 0in /  0.0mm CLR
07:34 53.4 °F /  11.9 °C 50.4 °F /  10.2 °C 29.5in /  1000.5hPa South 9.7mph /  15.6km/h 13.8mph /  22.2km/h 89% 0in /  0.0mm CLR
07:39 53.6 °F /  12.0 °C 50.4 °F /  10.2 °C 29.5in /  1000.5hPa SSW 8.5mph /  13.7km/h 15mph /  24.1km/h 89% 0in /  0.0mm CLR
07:44 53.8 °F /  12.1 °C 50.5 °F /  10.3 °C 29.5in /  1000.5hPa SSW 8.5mph /  13.7km/h 10.4mph /  16.7km/h 89% 0in /  0.0mm CLR
07:49 53.8 °F /  12.1 °C 50.4 °F /  10.2 °C 29.6in /  1000.7hPa SSW 8.1mph /  13.0km/h 13.8mph /  22.2km/h 88% 0in /  0.0mm CLR
07:54 53.8 °F /  12.1 °C 50.4 °F /  10.2 °C 29.6in /  1000.7hPa SSW 8.1mph /  13.0km/h 10.4mph /  16.7km/h 88% 0in /  0.0mm CLR
07:59 54 °F /  12.2 °C 50.5 °F /  10.3 °C 29.6in /  1000.7hPa SW 7.4mph /  11.9km/h 11.5mph /  18.5km/h 88% 0in /  0.0mm CLR
08:04 54 °F /  12.2 °C 50.5 °F /  10.3 °C 29.6in /  1000.7hPa SW 7.4mph /  11.9km/h 11.5mph /  18.5km/h 88% 0in /  0.0mm CLR
08:09 54.1 °F /  12.3 °C 50.4 °F /  10.2 °C 29.6in /  1000.7hPa SSW 6.4mph /  10.3km/h 8.1mph /  13.0km/h 87% 0in /  0.0mm CLR
08:14 54.1 °F /  12.3 °C 50.4 °F /  10.2 °C 29.6in /  1000.7hPa SW 6.4mph /  10.3km/h 9.2mph /  14.8km/h 87% 0in /  0.0mm CLR
08:19 54.1 °F /  12.3 °C 50.4 °F /  10.2 °C 29.6in /  1000.7hPa WSW 6.4mph /  10.3km/h 8.1mph /  13.0km/h 87% 0in /  0.0mm CLR
08:24 54.1 °F /  12.3 °C 50.4 °F /  10.2 °C 29.6in /  1000.7hPa SSW 6.4mph /  10.3km/h 8.1mph /  13.0km/h 87% 0in /  0.0mm CLR
08:29 54.3 °F /  12.4 °C 50.2 °F /  10.1 °C 29.6in /  1000.7hPa SSW 6.2mph /  10.0km/h 8.1mph /  13.0km/h 86% 0in /  0.0mm CLR
08:34 54.3 °F /  12.4 °C 50.2 °F /  10.1 °C 29.6in /  1000.7hPa SSW 6.2mph /  10.0km/h 7.6mph /  12.2km/h 86% 0in /  0.0mm CLR
08:39 54.3 °F /  12.4 °C 50.2 °F /  10.1 °C 29.6in /  1000.7hPa SSW 5.9mph /  9.5km/h 9.2mph /  14.8km/h 86% 0in /  0.0mm CLR
08:44 54.5 °F /  12.5 °C 50.4 °F /  10.2 °C 29.6in /  1000.7hPa SSW 5.9mph /  9.5km/h 9.2mph /  14.8km/h 86% 0in /  0.0mm CLR
08:49 54.5 °F /  12.5 °C 50.4 °F /  10.2 °C 29.6in /  1000.7hPa South 6.4mph /  10.3km/h 8.1mph /  13.0km/h 86% 0in /  0.0mm CLR
08:54 54.7 °F /  12.6 °C 50.5 °F /  10.3 °C 29.6in /  1000.7hPa SSW 6.4mph /  10.3km/h 10.4mph /  16.7km/h 86% 0in /  0.0mm CLR
08:59 54.7 °F /  12.6 °C 50.5 °F /  10.3 °C 29.6in /  1000.7hPa SSW 6.2mph /  10.0km/h 8.1mph /  13.0km/h 86% 0in /  0.0mm CLR
09:04 54.9 °F /  12.7 °C 50.7 °F /  10.4 °C 29.6in /  1000.8hPa SSW 6.2mph /  10.0km/h 9.2mph /  14.8km/h 86% 0in /  0.0mm CLR
09:09 54.9 °F /  12.7 °C 50.7 °F /  10.4 °C 29.6in /  1000.8hPa SW 6.4mph /  10.3km/h 6.9mph /  11.1km/h 86% 0in /  0.0mm CLR
09:14 54.9 °F /  12.7 °C 50.7 °F /  10.4 °C 29.6in /  1000.8hPa SW 6.4mph /  10.3km/h 6.9mph /  11.1km/h 86% 0in /  0.0mm CLR
09:19 54.9 °F /  12.7 °C 50.7 °F /  10.4 °C 29.6in /  1000.8hPa SSW 5.4mph /  8.7km/h 8.1mph /  13.0km/h 86% 0in /  0.0mm CLR
09:24 54.9 °F /  12.7 °C 50.7 °F /  10.4 °C 29.6in /  1000.8hPa SSW 5.4mph /  8.7km/h 8.1mph /  13.0km/h 86% 0in /  0.0mm CLR
09:29 55 °F /  12.8 °C 50.9 °F /  10.5 °C 29.6in /  1000.8hPa SSW 5.9mph /  9.5km/h 8.1mph /  13.0km/h 86% 0in /  0.0mm CLR
09:34 55 °F /  12.8 °C 50.9 °F /  10.5 °C 29.6in /  1000.9hPa SSW 5.9mph /  9.5km/h 6.2mph /  10.0km/h 86% 0in /  0.0mm CLR
09:39 55 °F /  12.8 °C 50.9 °F /  10.5 °C 29.6in /  1000.9hPa SW 5.2mph /  8.4km/h 6.9mph /  11.1km/h 86% 0in /  0.0mm CLR
09:44 55.2 °F /  12.9 °C 51.1 °F /  10.6 °C 29.6in /  1000.9hPa SW 5.2mph /  8.4km/h 10.4mph /  16.7km/h 86% 0in /  0.0mm CLR
09:49 55.2 °F /  12.9 °C 51.1 °F /  10.6 °C 29.6in /  1000.8hPa SW 4.7mph /  7.6km/h 5.8mph /  9.3km/h 86% 0in /  0.0mm CLR
09:54 55.4 °F /  13.0 °C 51.1 °F /  10.6 °C 29.6in /  1000.8hPa SW 4.7mph /  7.6km/h 8.1mph /  13.0km/h 85% 0in /  0.0mm CLR
09:59 55.6 °F /  13.1 °C 50.7 °F /  10.4 °C 29.6in /  1000.8hPa SW 4.7mph /  7.6km/h 5.8mph /  9.3km/h 84% 0in /  0.0mm CLR
10:04 55.6 °F /  13.1 °C 50.7 °F /  10.4 °C 29.6in /  1000.9hPa SSW 4.7mph /  7.6km/h 6.9mph /  11.1km/h 84% 0in /  0.0mm CLR
10:09 55.8 °F /  13.2 °C 50.7 °F /  10.4 °C 29.6in /  1000.9hPa SSW 4.3mph /  6.9km/h 8.1mph /  13.0km/h 83% 0in /  0.0mm CLR
10:14 55.8 °F /  13.2 °C 50.7 °F /  10.4 °C 29.6in /  1000.9hPa SSW 4.3mph /  6.9km/h 8.1mph /  13.0km/h 83% 0in /  0.0mm CLR
10:19 55.8 °F /  13.2 °C 50.7 °F /  10.4 °C 29.6in /  1000.9hPa SSW 5.2mph /  8.4km/h 9.2mph /  14.8km/h 83% 0in /  0.0mm CLR
10:24 55.8 °F /  13.2 °C 51.1 °F /  10.6 °C 29.6in /  1000.9hPa SSW 5.2mph /  8.4km/h 8.1mph /  13.0km/h 84% 0in /  0.0mm CLR
10:29 55.8 °F /  13.2 °C 50.7 °F /  10.4 °C 29.6in /  1000.9hPa SSW 5.9mph /  9.5km/h 9.2mph /  14.8km/h 83% 0in /  0.0mm CLR
10:34 55.8 °F /  13.2 °C 51.1 °F /  10.6 °C 29.6in /  1000.9hPa SSW 5.9mph /  9.5km/h 8.5mph /  13.7km/h 84% 0in /  0.0mm CLR
10:39 55.8 °F /  13.2 °C 50.7 °F /  10.4 °C 29.6in /  1000.9hPa SSW 5.2mph /  8.4km/h 8.1mph /  13.0km/h 83% 0in /  0.0mm CLR
10:44 55.9 °F /  13.3 °C 50.9 °F /  10.5 °C 29.6in /  1000.9hPa SSW 5.2mph /  8.4km/h 6.9mph /  11.1km/h 83% 0in /  0.0mm CLR
10:49 55.9 °F /  13.3 °C 50.9 °F /  10.5 °C 29.6in /  1001.0hPa SSW 4.7mph /  7.6km/h 4.6mph /  7.4km/h 83% 0in /  0.0mm CLR
10:54 55.9 °F /  13.3 °C 50.9 °F /  10.5 °C 29.6in /  1001.0hPa SSW 4.7mph /  7.6km/h 6.9mph /  11.1km/h 83% 0in /  0.0mm CLR
10:59 56.1 °F /  13.4 °C 51.1 °F /  10.6 °C 29.6in /  1001.0hPa South 3.6mph /  5.8km/h 4.6mph /  7.4km/h 83% 0in /  0.0mm CLR
11:04 56.1 °F /  13.4 °C 50.7 °F /  10.4 °C 29.6in /  1001.0hPa SSE 3.6mph /  5.8km/h 4.7mph /  7.6km/h 82% 0in /  0.0mm CLR
11:09 56.5 °F /  13.6 °C 50.7 °F /  10.4 °C 29.6in /  1001.0hPa South 3.6mph /  5.8km/h 5.8mph /  9.3km/h 81% 0in /  0.0mm CLR
11:14 56.5 °F /  13.6 °C 51.1 °F /  10.6 °C 29.6in /  1001.0hPa SSE 3.6mph /  5.8km/h 4.6mph /  7.4km/h 82% 0in /  0.0mm CLR
11:19 56.7 °F /  13.7 °C 51.3 °F /  10.7 °C 29.6in /  1001.0hPa South 3.1mph /  5.0km/h 4.7mph /  7.6km/h 82% 0in /  0.0mm CLR
11:24 56.7 °F /  13.7 °C 51.3 °F /  10.7 °C 29.6in /  1001.0hPa SSW 3.1mph /  5.0km/h 4.6mph /  7.4km/h 82% 0in /  0.0mm CLR
11:29 56.8 °F /  13.8 °C 51.4 °F /  10.8 °C 29.6in /  1001.0hPa SW 4mph /  6.4km/h 4.6mph /  7.4km/h 82% 0in /  0.0mm CLR
11:34 57 °F /  13.9 °C 51.6 °F /  10.9 °C 29.6in /  1001.0hPa SW 4mph /  6.4km/h 4.6mph /  7.4km/h 82% 0in /  0.0mm CLR
11:39 57.2 °F /  14.0 °C 51.4 °F /  10.8 °C 29.6in /  1001.0hPa SSW 2.9mph /  4.7km/h 6.9mph /  11.1km/h 81% 0in /  0.0mm CLR
11:44 57.4 °F /  14.1 °C 51.6 °F /  10.9 °C 29.6in /  1001.0hPa SSW 2.9mph /  4.7km/h 7.4mph /  11.9km/h 81% 0in /  0.0mm CLR
11:49 57.6 °F /  14.2 °C 51.4 °F /  10.8 °C 29.6in /  1000.9hPa SW 4.3mph /  6.9km/h 9.2mph /  14.8km/h 80% 0in /  0.0mm CLR
11:55 57.7 °F /  14.3 °C 51.3 °F /  10.7 °C 29.6in /  1000.9hPa SSW 5mph /  8.0km/h 9mph /  14.5km/h 79% 0in /  0.0mm CLR
11:59 57.9 °F /  14.4 °C 51.1 °F /  10.6 °C 29.6in /  1000.9hPa South 4.7mph /  7.6km/h 5.8mph /  9.3km/h 78% 0in /  0.0mm CLR
12:04 58.3 °F /  14.6 °C 51.1 °F /  10.6 °C 29.6in /  1000.9hPa WSW 4.7mph /  7.6km/h 6.9mph /  11.1km/h 77% 0in /  0.0mm CLR
12:09 58.5 °F /  14.7 °C 50.9 °F /  10.5 °C 29.6in /  1000.9hPa West 4mph /  6.4km/h 4.6mph /  7.4km/h 76% 0in /  0.0mm CLR
12:14 58.8 °F /  14.9 °C 50.5 °F /  10.3 °C 29.6in /  1000.9hPa WSW 4mph /  6.4km/h 10.4mph /  16.7km/h 74% 0in /  0.0mm CLR
12:19 59.2 °F /  15.1 °C 50.9 °F /  10.5 °C 29.6in /  1000.9hPa West 4.3mph /  6.9km/h 6.9mph /  11.1km/h 74% 0in /  0.0mm CLR
12:24 59.4 °F /  15.2 °C 50.7 °F /  10.4 °C 29.6in /  1000.9hPa NNW 4.3mph /  6.9km/h 8.1mph /  13.0km/h 73% 0in /  0.0mm CLR
12:29 59.7 °F /  15.4 °C 50.7 °F /  10.4 °C 29.6in /  1000.9hPa SW 4.3mph /  6.9km/h 6.9mph /  11.1km/h 72% 0in /  0.0mm CLR
12:34 60.1 °F /  15.6 °C 50.5 °F /  10.3 °C 29.6in /  1000.7hPa WSW 4.3mph /  6.9km/h 8.5mph /  13.7km/h 71% 0in /  0.0mm CLR
12:39 60.6 °F /  15.9 °C 50.4 °F /  10.2 °C 29.6in /  1000.7hPa WSW 5.9mph /  9.5km/h 9.2mph /  14.8km/h 69% 0in /  0.0mm CLR
12:44 61 °F /  16.1 °C 50.4 °F /  10.2 °C 29.6in /  1000.7hPa WNW 5.9mph /  9.5km/h 18.4mph /  29.6km/h 68% 0in /  0.0mm CLR
12:49 61.2 °F /  16.2 °C 50.2 °F /  10.1 °C 29.6in /  1000.7hPa WNW 8.1mph /  13.0km/h 11.5mph /  18.5km/h 67% 0in /  0.0mm CLR
12:54 61.5 °F /  16.4 °C 50.5 °F /  10.3 °C 29.6in /  1000.7hPa WNW 8.1mph /  13.0km/h 10.4mph /  16.7km/h 67% 0in /  0.0mm CLR
12:59 61.9 °F /  16.6 °C 50.7 °F /  10.4 °C 29.6in /  1000.7hPa West 6.9mph /  11.1km/h 8.1mph /  13.0km/h 67% 0in /  0.0mm CLR
13:04 62.1 °F /  16.7 °C 50.2 °F /  10.1 °C 29.6in /  1000.6hPa WNW 6.9mph /  11.1km/h 12.7mph /  20.4km/h 65% 0in /  0.0mm CLR
13:09 62.1 °F /  16.7 °C 49.6 °F /  9.8 °C 29.6in /  1000.6hPa NW 7.4mph /  11.9km/h 10.4mph /  16.7km/h 64% 0in /  0.0mm CLR
13:14 62.1 °F /  16.7 °C 49.6 °F /  9.8 °C 29.6in /  1000.6hPa WNW 7.4mph /  11.9km/h 15mph /  24.1km/h 64% 0in /  0.0mm CLR
13:19 62.2 °F /  16.8 °C 50.4 °F /  10.2 °C 29.5in /  1000.5hPa West 9.2mph /  14.8km/h 10.4mph /  16.7km/h 65% 0in /  0.0mm CLR
13:24 62.4 °F /  16.9 °C 50.2 °F /  10.1 °C 29.5in /  1000.5hPa WNW 9.2mph /  14.8km/h 16.1mph /  25.9km/h 64% 0in /  0.0mm CLR
13:29 62.4 °F /  16.9 °C 50.2 °F /  10.1 °C 29.5in /  1000.5hPa WNW 7.6mph /  12.2km/h 15mph /  24.1km/h 64% 0in /  0.0mm CLR
13:34 62.4 °F /  16.9 °C 50.2 °F /  10.1 °C 29.5in /  1000.3hPa West 7.6mph /  12.2km/h 15mph /  24.1km/h 64% 0in /  0.0mm CLR
13:39 62.8 °F /  17.1 °C 50 °F /  10.0 °C 29.5in /  1000.3hPa WNW 9.7mph /  15.6km/h 14.5mph /  23.3km/h 63% 0in /  0.0mm CLR
13:44 63.1 °F /  17.3 °C 50.4 °F /  10.2 °C 29.5in /  1000.3hPa West 9.7mph /  15.6km/h 10.4mph /  16.7km/h 63% 0in /  0.0mm CLR
13:49 63.3 °F /  17.4 °C 50.2 °F /  10.1 °C 29.5in /  1000.1hPa WNW 9.7mph /  15.6km/h 12.7mph /  20.4km/h 62% 0in /  0.0mm CLR
13:55 63.7 °F /  17.6 °C 50.4 °F /  10.2 °C 29.5in /  1000.1hPa WNW 9mph /  14.5km/h 14mph /  22.5km/h 62% 0in /  0.0mm CLR
13:59 63.7 °F /  17.6 °C 50.4 °F /  10.2 °C 29.5in /  1000.1hPa WNW 8.7mph /  14.0km/h 11.5mph /  18.5km/h 62% 0in /  0.0mm CLR
14:04 63.7 °F /  17.6 °C 50 °F /  10.0 °C 29.5in /  1000.0hPa NW 8.7mph /  14.0km/h 16.1mph /  25.9km/h 61% 0in /  0.0mm CLR
14:09 63.7 °F /  17.6 °C 50 °F /  10.0 °C 29.5in /  1000.0hPa WNW 8.5mph /  13.7km/h 13.8mph /  22.2km/h 61% 0in /  0.0mm CLR
14:14 63.9 °F /  17.7 °C 50.2 °F /  10.1 °C 29.5in /  1000.0hPa WNW 8.5mph /  13.7km/h 13.8mph /  22.2km/h 61% 0in /  0.0mm CLR
14:19 63.9 °F /  17.7 °C 50.2 °F /  10.1 °C 29.5in /  999.9hPa NW 8.5mph /  13.7km/h 11.5mph /  18.5km/h 61% 0in /  0.0mm CLR
14:24 64 °F /  17.8 °C 49.8 °F /  9.9 °C 29.5in /  999.9hPa WNW 8.5mph /  13.7km/h 12.7mph /  20.4km/h 60% 0in /  0.0mm CLR
14:29 64 °F /  17.8 °C 49.5 °F /  9.7 °C 29.5in /  999.9hPa WNW 7.4mph /  11.9km/h 13.8mph /  22.2km/h 59% 0in /  0.0mm CLR
14:34 64.2 °F /  17.9 °C 49.6 °F /  9.8 °C 29.5in /  999.6hPa West 7.4mph /  11.9km/h 8.1mph /  13.0km/h 59% 0in /  0.0mm CLR
14:39 64.8 °F /  18.2 °C 50.2 °F /  10.1 °C 29.5in /  999.6hPa West 6.9mph /  11.1km/h 12.7mph /  20.4km/h 59% 0in /  0.0mm CLR
14:44 65.1 °F /  18.4 °C 50.4 °F /  10.2 °C 29.5in /  999.6hPa WNW 6.9mph /  11.1km/h 9.2mph /  14.8km/h 59% 0in /  0.0mm CLR
14:49 65.7 °F /  18.7 °C 50 °F /  10.0 °C 29.5in /  999.6hPa WSW 5.9mph /  9.5km/h 9.2mph /  14.8km/h 57% 0in /  0.0mm CLR
14:54 65.8 °F /  18.8 °C 50.5 °F /  10.3 °C 29.5in /  999.6hPa NW 5.9mph /  9.5km/h 9.2mph /  14.8km/h 58% 0in /  0.0mm CLR
14:59 65.7 °F /  18.7 °C 49.5 °F /  9.7 °C 29.5in /  999.6hPa NW 6.2mph /  10.0km/h 9.2mph /  14.8km/h 56% 0in /  0.0mm CLR
15:04 65.5 °F /  18.6 °C 49.5 °F /  9.7 °C 29.5in /  999.4hPa NNW 6.2mph /  10.0km/h 8.1mph /  13.0km/h 56% 0in /  0.0mm CLR
15:09 65.5 °F /  18.6 °C 49.5 °F /  9.7 °C 29.5in /  999.4hPa WNW 5.9mph /  9.5km/h 6.9mph /  11.1km/h 56% 0in /  0.0mm CLR
15:14 65.3 °F /  18.5 °C 49.3 °F /  9.6 °C 29.5in /  999.4hPa West 5.9mph /  9.5km/h 10.4mph /  16.7km/h 56% 0in /  0.0mm CLR
15:19 65.3 °F /  18.5 °C 48.7 °F /  9.3 °C 29.5in /  999.5hPa West 4.3mph /  6.9km/h 9.2mph /  14.8km/h 55% 0in /  0.0mm CLR
15:24 65.5 °F /  18.6 °C 48.9 °F /  9.4 °C 29.5in /  999.5hPa WSW 4.3mph /  6.9km/h 10.4mph /  16.7km/h 55% 0in /  0.0mm CLR
15:29 65.5 °F /  18.6 °C 49.5 °F /  9.7 °C 29.5in /  999.5hPa WNW 6.2mph /  10.0km/h 6.9mph /  11.1km/h 56% 0in /  0.0mm CLR
15:35 65.5 °F /  18.6 °C 48.9 °F /  9.4 °C 29.5in /  999.3hPa WSW 6.2mph /  10.0km/h 10.4mph /  16.7km/h 55% 0in /  0.0mm CLR
15:39 65.7 °F /  18.7 °C 49.5 °F /  9.7 °C 29.5in /  999.3hPa West 5.4mph /  8.7km/h 6.9mph /  11.1km/h 56% 0in /  0.0mm CLR
15:44 65.7 °F /  18.7 °C 49.5 °F /  9.7 °C 29.5in /  999.3hPa WSW 5.4mph /  8.7km/h 9.2mph /  14.8km/h 56% 0in /  0.0mm CLR
15:49 65.7 °F /  18.7 °C 49.5 °F /  9.7 °C 29.5in /  999.2hPa West 5.2mph /  8.4km/h 9.2mph /  14.8km/h 56% 0in /  0.0mm CLR
15:54 65.8 °F /  18.8 °C 49.6 °F /  9.8 °C 29.5in /  999.2hPa WSW 5.2mph /  8.4km/h 9.2mph /  14.8km/h 56% 0in /  0.0mm CLR
15:59 66 °F /  18.9 °C 49.5 °F /  9.7 °C 29.5in /  999.2hPa SW 5.2mph /  8.4km/h 9.2mph /  14.8km/h 55% 0in /  0.0mm CLR
16:05 66.4 °F /  19.1 °C 49.6 °F /  9.8 °C 29.5in /  999.0hPa WSW 5mph /  8.0km/h 12mph /  19.3km/h 55% 0in /  0.0mm CLR
16:09 66.2 °F /  19.0 °C 49.6 °F /  9.8 °C 29.5in /  999.0hPa SW 6.2mph /  10.0km/h 9.2mph /  14.8km/h 55% 0in /  0.0mm CLR
16:14 66.2 °F /  19.0 °C 49.6 °F /  9.8 °C 29.5in /  999.0hPa WSW 6.2mph /  10.0km/h 8.1mph /  13.0km/h 55% 0in /  0.0mm CLR
16:19 66.4 °F /  19.1 °C 49.3 °F /  9.6 °C 29.5in /  998.9hPa WSW 5.4mph /  8.7km/h 8.1mph /  13.0km/h 54% 0in /  0.0mm CLR
16:25 66.4 °F /  19.1 °C 49.6 °F /  9.8 °C 29.5in /  998.9hPa WSW 6mph /  9.7km/h 9mph /  14.5km/h 55% 0in /  0.0mm CLR
16:29 66.4 °F /  19.1 °C 49.6 °F /  9.8 °C 29.5in /  998.9hPa NW 5.4mph /  8.7km/h 5.8mph /  9.3km/h 55% 0in /  0.0mm CLR
16:34 66.6 °F /  19.2 °C 49.5 °F /  9.7 °C 29.5in /  998.9hPa SW 5.4mph /  8.7km/h 12.7mph /  20.4km/h 54% 0in /  0.0mm CLR
16:39 66.6 °F /  19.2 °C 49.5 °F /  9.7 °C 29.5in /  998.9hPa WNW 5.9mph /  9.5km/h 11.5mph /  18.5km/h 54% 0in /  0.0mm CLR
16:44 66.6 °F /  19.2 °C 48.4 °F /  9.1 °C 29.5in /  998.9hPa WSW 5.9mph /  9.5km/h 12.7mph /  20.4km/h 52% 0in /  0.0mm CLR
16:49 66.4 °F /  19.1 °C 48.2 °F /  9.0 °C 29.5in /  998.9hPa West 7.4mph /  11.9km/h 15mph /  24.1km/h 52% 0in /  0.0mm CLR
16:54 66.4 °F /  19.1 °C 48.2 °F /  9.0 °C 29.5in /  998.9hPa WNW 7.4mph /  11.9km/h 16.1mph /  25.9km/h 52% 0in /  0.0mm CLR
16:59 66.2 °F /  19.0 °C 48 °F /  8.9 °C 29.5in /  998.9hPa West 8.1mph /  13.0km/h 11.5mph /  18.5km/h 52% 0in /  0.0mm CLR
17:04 66.4 °F /  19.1 °C 48.2 °F /  9.0 °C 29.5in /  998.8hPa SW 8.1mph /  13.0km/h 11.5mph /  18.5km/h 52% 0in /  0.0mm CLR
17:09 66.6 °F /  19.2 °C 48.4 °F /  9.1 °C 29.5in /  998.8hPa West 7.6mph /  12.2km/h 12.7mph /  20.4km/h 52% 0in /  0.0mm CLR
17:14 66.7 °F /  19.3 °C 48.6 °F /  9.2 °C 29.5in /  998.8hPa NW 7.6mph /  12.2km/h 19.6mph /  31.5km/h 52% 0in /  0.0mm CLR
17:19 66.9 °F /  19.4 °C 48.7 °F /  9.3 °C 29.5in /  998.9hPa West 8.7mph /  14.0km/h 16.1mph /  25.9km/h 52% 0in /  0.0mm CLR
17:24 66.7 °F /  19.3 °C 48.6 °F /  9.2 °C 29.5in /  998.9hPa WSW 8.7mph /  14.0km/h 12.7mph /  20.4km/h 52% 0in /  0.0mm CLR
17:29 66.7 °F /  19.3 °C 48 °F /  8.9 °C 29.5in /  998.9hPa West 8.7mph /  14.0km/h 18.4mph /  29.6km/h 51% 0in /  0.0mm CLR
17:34 66.7 °F /  19.3 °C 49.1 °F /  9.5 °C 29.5in /  998.9hPa NNW 8.7mph /  14.0km/h 11.5mph /  18.5km/h 53% 0in /  0.0mm CLR
17:39 66.7 °F /  19.3 °C 49.1 °F /  9.5 °C 29.5in /  998.9hPa WNW 8.7mph /  14.0km/h 16.1mph /  25.9km/h 53% 0in /  0.0mm CLR
17:45 66.6 °F /  19.2 °C 48.9 °F /  9.4 °C 29.5in /  998.9hPa West 9mph /  14.5km/h 14mph /  22.5km/h 53% 0in /  0.0mm CLR
17:49 66.4 °F /  19.1 °C 49.3 °F /  9.6 °C 29.5in /  999.0hPa West 8.1mph /  13.0km/h 9.2mph /  14.8km/h 54% 0in /  0.0mm CLR
17:54 66.2 °F /  19.0 °C 48.6 °F /  9.2 °C 29.5in /  999.0hPa West 8.1mph /  13.0km/h 10.4mph /  16.7km/h 53% 0in /  0.0mm CLR
17:59 66 °F /  18.9 °C 48.4 °F /  9.1 °C 29.5in /  999.0hPa West 8.1mph /  13.0km/h 12.7mph /  20.4km/h 53% 0in /  0.0mm CLR
18:04 65.8 °F /  18.8 °C 48.7 °F /  9.3 °C 29.5in /  999.1hPa West 8.1mph /  13.0km/h 12.5mph /  20.1km/h 54% 0in /  0.0mm CLR
18:09 65.8 °F /  18.8 °C 48.2 °F /  9.0 °C 29.5in /  999.1hPa WNW 6.9mph /  11.1km/h 10.4mph /  16.7km/h 53% 0in /  0.0mm CLR
18:14 65.8 °F /  18.8 °C 48.7 °F /  9.3 °C 29.5in /  999.1hPa West 6.9mph /  11.1km/h 8.1mph /  13.0km/h 54% 0in /  0.0mm CLR
18:19 65.8 °F /  18.8 °C 49.3 °F /  9.6 °C 29.5in /  999.0hPa West 5.9mph /  9.5km/h 5.8mph /  9.3km/h 55% 0in /  0.0mm CLR
18:25 65.8 °F /  18.8 °C 48.7 °F /  9.3 °C 29.5in /  999.0hPa WSW 5.9mph /  9.5km/h 9.2mph /  14.8km/h 54% 0in /  0.0mm CLR
18:29 65.8 °F /  18.8 °C 48.7 °F /  9.3 °C 29.5in /  999.0hPa West 4mph /  6.4km/h 5.9mph /  9.5km/h 54% 0in /  0.0mm CLR
18:35 65.8 °F /  18.8 °C 48.7 °F /  9.3 °C 29.5in /  999.0hPa West 5mph /  8.0km/h 6mph /  9.7km/h 54% 0in /  0.0mm CLR
18:39 65.8 °F /  18.8 °C 48.2 °F /  9.0 °C 29.5in /  999.0hPa WNW 3.6mph /  5.8km/h 6.4mph /  10.3km/h 53% 0in /  0.0mm CLR
18:45 65.7 °F /  18.7 °C 48.6 °F /  9.2 °C 29.5in /  999.0hPa WNW 3mph /  4.8km/h 8mph /  12.9km/h 54% 0in /  0.0mm CLR
18:49 65.7 °F /  18.7 °C 48.6 °F /  9.2 °C 29.5in /  999.0hPa WNW 4.3mph /  6.9km/h 4.6mph /  7.4km/h 54% 0in /  0.0mm CLR
18:55 65.7 °F /  18.7 °C 48.6 °F /  9.2 °C 29.5in /  999.0hPa WNW 5mph /  8.0km/h 7mph /  11.3km/h 54% 0in /  0.0mm CLR
18:59 65.7 °F /  18.7 °C 48.6 °F /  9.2 °C 29.5in /  999.0hPa West 3.6mph /  5.8km/h 6.9mph /  11.1km/h 54% 0in /  0.0mm CLR
19:05 65.7 °F /  18.7 °C 48.9 °F /  9.4 °C 29.5in /  998.8hPa WNW 3mph /  4.8km/h 7mph /  11.3km/h 55% 0in /  0.0mm CLR
19:09 65.7 °F /  18.7 °C 48.9 °F /  9.4 °C 29.5in /  998.8hPa SW 2.9mph /  4.7km/h 5.8mph /  9.3km/h 55% 0in /  0.0mm CLR
19:15 65.7 °F /  18.7 °C 48.9 °F /  9.4 °C 29.5in /  998.8hPa South 2.9mph /  4.7km/h 4.6mph /  7.4km/h 55% 0in /  0.0mm CLR
19:19 65.7 °F /  18.7 °C 50 °F /  10.0 °C 29.5in /  998.8hPa SSE 2.9mph /  4.7km/h 3.5mph /  5.6km/h 57% 0in /  0.0mm CLR
19:25 65.5 °F /  18.6 °C 50.4 °F /  10.2 °C 29.5in /  998.8hPa SE 2.9mph /  4.7km/h 4.6mph /  7.4km/h 58% 0in /  0.0mm CLR
19:29 65.1 °F /  18.4 °C 50.9 °F /  10.5 °C 29.5in /  998.8hPa SE 3.6mph /  5.8km/h 5.8mph /  9.3km/h 60% 0in /  0.0mm CLR
19:34 64.9 °F /  18.3 °C 51.3 °F /  10.7 °C 29.5in /  998.8hPa SSE 3.6mph /  5.8km/h 4.6mph /  7.4km/h 61% 0in /  0.0mm CLR
19:39 64.9 °F /  18.3 °C 51.3 °F /  10.7 °C 29.5in /  998.8hPa SE 3.1mph /  5.0km/h 4.6mph /  7.4km/h 61% 0in /  0.0mm CLR
19:44 64.8 °F /  18.2 °C 51.1 °F /  10.6 °C 29.5in /  998.8hPa SE 3.1mph /  5.0km/h 4.6mph /  7.4km/h 61% 0in /  0.0mm CLR
19:49 64.8 °F /  18.2 °C 51.1 °F /  10.6 °C 29.5in /  998.8hPa SE 3.6mph /  5.8km/h 5.8mph /  9.3km/h 61% 0in /  0.0mm CLR
19:54 64.6 °F /  18.1 °C 50.7 °F /  10.4 °C 29.5in /  998.8hPa ESE 3.6mph /  5.8km/h 3.5mph /  5.6km/h 61% 0in /  0.0mm CLR
19:59 64.6 °F /  18.1 °C 51.3 °F /  10.7 °C 29.5in /  998.8hPa South 2.9mph /  4.7km/h 5.4mph /  8.7km/h 62% 0in /  0.0mm CLR
20:04 64.6 °F /  18.1 °C 50.7 °F /  10.4 °C 29.5in /  998.9hPa SE 2.9mph /  4.7km/h 4.6mph /  7.4km/h 61% 0in /  0.0mm CLR
20:09 64.6 °F /  18.1 °C 50.7 °F /  10.4 °C 29.5in /  998.9hPa SSE 3.1mph /  5.0km/h 4.6mph /  7.4km/h 61% 0in /  0.0mm CLR
20:15 64.6 °F /  18.1 °C 50.7 °F /  10.4 °C 29.5in /  998.9hPa South 3.1mph /  5.0km/h 4.6mph /  7.4km/h 61% 0in /  0.0mm CLR
20:19 64.6 °F /  18.1 °C 50.7 °F /  10.4 °C 29.5in /  999.1hPa SSE 3.6mph /  5.8km/h 5.8mph /  9.3km/h 61% 0in /  0.0mm CLR
20:24 64.4 °F /  18.0 °C 51.1 °F /  10.6 °C 29.5in /  999.1hPa SSW 3.6mph /  5.8km/h 4.6mph /  7.4km/h 62% 0in /  0.0mm CLR
20:29 64.4 °F /  18.0 °C 50.7 °F /  10.4 °C 29.5in /  999.1hPa South 3.6mph /  5.8km/h 5.8mph /  9.3km/h 61% 0in /  0.0mm CLR
20:34 64.2 °F /  17.9 °C 50.9 °F /  10.5 °C 29.5in /  999.1hPa SSW 3.6mph /  5.8km/h 5.8mph /  9.3km/h 62% 0in /  0.0mm CLR
20:39 64.2 °F /  17.9 °C 51.4 °F /  10.8 °C 29.5in /  999.1hPa SSW 4mph /  6.4km/h 9.2mph /  14.8km/h 63% 0in /  0.0mm CLR
20:44 64 °F /  17.8 °C 51.6 °F /  10.9 °C 29.5in /  999.1hPa SSW 4mph /  6.4km/h 5.4mph /  8.7km/h 64% 0in /  0.0mm CLR
20:49 64 °F /  17.8 °C 52 °F /  11.1 °C 29.5in /  999.5hPa South 4.3mph /  6.9km/h 6.9mph /  11.1km/h 65% 0in /  0.0mm CLR
20:54 63.9 °F /  17.7 °C 52.3 °F /  11.3 °C 29.5in /  999.5hPa South 4.3mph /  6.9km/h 4.6mph /  7.4km/h 66% 0in /  0.0mm CLR
21:00 63.9 °F /  17.7 °C 52.3 °F /  11.3 °C 29.5in /  999.5hPa South 3mph /  4.8km/h 5mph /  8.0km/h 66% 0in /  0.0mm CLR
21:04 63.7 °F /  17.6 °C 52.5 °F /  11.4 °C 29.5in /  999.4hPa South 3.6mph /  5.8km/h 4.6mph /  7.4km/h 67% 0in /  0.0mm CLR
21:09 63.7 °F /  17.6 °C 52.5 °F /  11.4 °C 29.5in /  999.4hPa South 3.1mph /  5.0km/h 4.6mph /  7.4km/h 67% 0in /  0.0mm CLR
21:14 63.5 °F /  17.5 °C 52.7 °F /  11.5 °C 29.5in /  999.4hPa WSW 3.1mph /  5.0km/h 5.8mph /  9.3km/h 68% 0in /  0.0mm CLR
21:19 63.5 °F /  17.5 °C 53.1 °F /  11.7 °C 29.5in /  999.5hPa SW 2.4mph /  3.9km/h 5.2mph /  8.4km/h 69% 0in /  0.0mm CLR
21:24 63.3 °F /  17.4 °C 53.4 °F /  11.9 °C 29.5in /  999.5hPa SW 2.4mph /  3.9km/h 4.6mph /  7.4km/h 70% 0in /  0.0mm CLR
21:29 63.1 °F /  17.3 °C 53.2 °F /  11.8 °C 29.5in /  999.5hPa South 3.6mph /  5.8km/h 8.1mph /  13.0km/h 70% 0in /  0.0mm CLR
21:34 63 °F /  17.2 °C 52.5 °F /  11.4 °C 29.5in /  999.6hPa SSW 3.6mph /  5.8km/h 11.5mph /  18.5km/h 69% 0in /  0.0mm CLR
21:39 63 °F /  17.2 °C 52.2 °F /  11.2 °C 29.5in /  999.6hPa SW 5.9mph /  9.5km/h 11.5mph /  18.5km/h 68% 0in /  0.0mm CLR
21:45 62.8 °F /  17.1 °C 52.2 °F /  11.2 °C 29.5in /  999.6hPa South 5.9mph /  9.5km/h 8.1mph /  13.0km/h 68% 0in /  0.0mm CLR
21:49 62.8 °F /  17.1 °C 52.2 °F /  11.2 °C 29.5in /  999.8hPa SW 6.2mph /  10.0km/h 9.2mph /  14.8km/h 68% 0in /  0.0mm CLR
21:55 62.6 °F /  17.0 °C 52 °F /  11.1 °C 29.5in /  999.8hPa SSW 6mph /  9.7km/h 12mph /  19.3km/h 68% 0in /  0.0mm CLR
22:00 62.8 °F /  17.1 °C 51.6 °F /  10.9 °C 29.5in /  999.8hPa SSW 7mph /  11.3km/h 12mph /  19.3km/h 67% 0in /  0.0mm CLR
22:05 62.8 °F /  17.1 °C 51.6 °F /  10.9 °C 29.5in /  999.7hPa SSW 7mph /  11.3km/h 9mph /  14.5km/h 67% 0in /  0.0mm CLR
22:09 62.4 °F /  16.9 °C 51.6 °F /  10.9 °C 29.5in /  999.7hPa South 5.9mph /  9.5km/h 6.9mph /  11.1km/h 68% 0in /  0.0mm CLR
22:15 62.4 °F /  16.9 °C 52.2 °F /  11.2 °C 29.5in /  999.7hPa South 6mph /  9.7km/h 10mph /  16.1km/h 69% 0in /  0.0mm CLR
22:19 62.2 °F /  16.8 °C 52 °F /  11.1 °C 29.5in /  999.7hPa SSE 4.7mph /  7.6km/h 6.9mph /  11.1km/h 69% 0in /  0.0mm CLR
22:24 62.2 °F /  16.8 °C 52.7 °F /  11.5 °C 29.5in /  999.7hPa East 4.7mph /  7.6km/h 4.6mph /  7.4km/h 71% 0in /  0.0mm CLR
22:29 61.9 °F /  16.6 °C 53.1 °F /  11.7 °C 29.5in /  999.7hPa ESE 3.1mph /  5.0km/h 3.5mph /  5.6km/h 73% 0in /  0.0mm CLR
22:35 61.9 °F /  16.6 °C 53.1 °F /  11.7 °C 29.5in /  999.7hPa ESE 3mph /  4.8km/h   73% 0in /  0.0mm CLR
22:39 61.5 °F /  16.4 °C 53.2 °F /  11.8 °C 29.5in /  999.7hPa Calm   2.3mph /  3.7km/h 74% 0in /  0.0mm CLR
22:44 61.3 °F /  16.3 °C 53.2 °F /  11.8 °C 29.5in /  999.7hPa Calm     75% 0in /  0.0mm CLR
22:49 61.3 °F /  16.3 °C 53.8 °F /  12.1 °C 29.5in /  999.7hPa Calm     76% 0in /  0.0mm CLR
22:55 61.2 °F /  16.2 °C 53.4 °F /  11.9 °C 29.5in /  999.7hPa Calm   5mph /  8.0km/h 76% 0in /  0.0mm CLR
22:59 61 °F /  16.1 °C 53.4 °F /  11.9 °C 29.5in /  999.7hPa NNW 1.4mph /  2.3km/h   76% 0in /  0.0mm CLR
23:05 60.6 °F /  15.9 °C 53.4 °F /  11.9 °C 29.5in /  999.7hPa NNW 1.4mph /  2.3km/h 2.9mph /  4.7km/h 77% 0in /  0.0mm CLR
23:09 60.6 °F /  15.9 °C 53.1 °F /  11.7 °C 29.5in /  999.7hPa NNW 1.4mph /  2.3km/h 3.5mph /  5.6km/h 76% 0in /  0.0mm CLR
23:14 60.6 °F /  15.9 °C 52.5 °F /  11.4 °C 29.5in /  999.7hPa NNW 1.4mph /  2.3km/h 2.3mph /  3.7km/h 75% 0in /  0.0mm CLR
23:19 60.4 °F /  15.8 °C 52.5 °F /  11.4 °C 29.5in /  999.8hPa NNW 1.8mph /  2.9km/h 2.4mph /  3.9km/h 75% 0in /  0.0mm CLR
23:25 60.4 °F /  15.8 °C 52.5 °F /  11.4 °C 29.5in /  999.8hPa NNW 1.8mph /  2.9km/h   75% 0in /  0.0mm CLR
23:29 60.4 °F /  15.8 °C 52.5 °F /  11.4 °C 29.5in /  999.8hPa Calm     75% 0in /  0.0mm CLR
23:34 60.4 °F /  15.8 °C 52.9 °F /  11.6 °C 29.5in /  999.8hPa Calm     76% 0in /  0.0mm CLR
23:39 60.3 °F /  15.7 °C 52.7 °F /  11.5 °C 29.5in /  999.8hPa Calm   1.4mph /  2.3km/h 76% 0in /  0.0mm CLR
23:45 60.3 °F /  15.7 °C 52.7 °F /  11.5 °C 29.5in /  999.8hPa Calm   5.8mph /  9.3km/h 76% 0in /  0.0mm CLR
23:49 60.3 °F /  15.7 °C 52.7 °F /  11.5 °C 29.5in /  999.7hPa SW 2.4mph /  3.9km/h 6.9mph /  11.1km/h 76% 0in /  0.0mm CLR
23:54 60.3 °F /  15.7 °C 52.7 °F /  11.5 °C 29.5in /  999.7hPa South 2.4mph /  3.9km/h 4.6mph /  7.4km/h 76% 0in /  0.0mm CLR
23:59 60.1 °F /  15.6 °C 52.5 °F /  11.4 °C 29.5in /  999.7hPa South 4.3mph /  6.9km/h 4.6mph /  7.4km/h 76% 0in /  0.0mm CLR
Murcia-Puente Tocinos, España
Compliments of Weather Underground - 2.75 mb

La estación de MeteoMurcia.com, publica sus datos en los siguientes proyectos:

Weather Underground PWS IMURCIAP2 Meteoclimatic www.awekas.at

W3Counter
Web Analytics